.
Local / CommonContents

Fort Wayne - NE Ind.
U N D E R   C O N S T R U C T I O N

Northern Indiana (IWX) Radar

Latest IWX NEXRAD
Base Reflectivity



Latest IWX NEXRAD
Base Velocity

Indiana-Ohio Visible Satellite

For infrared and water vapor imagery, see Great Lakes - Midwest.

Current Conditions

Recent report from the Fort Wayne International Airport

May 20, 2018 - 07:54 AM EDT / 2018.05.20 1154 UTC


The skies are overcast. The temperature is 60.1 F (15.6 C) and the dew point is 57.0 F (13.9 C), giving a relative humidity of 89%. The barometric pressure is 30.1 in. Hg (1019 hPa) and rising. The wind is from the E (080 degrees) at 7 MPH (6 KT), and the visibility is 10 mile(s).

KFWA 201154Z 08006KT 10SM OVC011 16/14 A3010 RMK AO2 SLP190 70004 T01560139 10156 20144 53017
CoCoRaHS
IN-AL-39
A2 Web Hosting
Creative Commons License
GoDaddy
Look for:

loaded 2018-05-20 08:14:47 • last modified 2015-05-28 14:58:18
Privacy PolicyDisclaimer
• wx.awcolley.com is powered by PmWiki v.2002016 •
• all content (unless otherwise noted) © 2018 A W Colley